sensor_id;sensor_type;location;lat;lon;timestamp;temperature;humidity
52439;DHT22;38359;53.150;6.504;2023-06-22T00:06:42;20.00;99.90
52439;DHT22;38359;53.150;6.504;2023-06-22T00:17:08;20.00;99.90
52439;DHT22;38359;53.150;6.504;2023-06-22T00:27:35;20.00;99.90
52439;DHT22;38359;53.150;6.504;2023-06-22T00:38:01;19.80;99.90
52439;DHT22;38359;53.150;6.504;2023-06-22T00:48:27;19.60;99.90
52439;DHT22;38359;53.150;6.504;2023-06-22T00:58:53;19.60;99.90
52439;DHT22;38359;53.150;6.504;2023-06-22T01:09:28;19.20;99.90
52439;DHT22;38359;53.150;6.504;2023-06-22T01:19:57;19.10;99.90
52439;DHT22;38359;53.150;6.504;2023-06-22T01:30:24;19.00;99.90
52439;DHT22;38359;53.150;6.504;2023-06-22T01:40:52;18.70;99.90
52439;DHT22;38359;53.150;6.504;2023-06-22T01:51:18;18.60;99.90
52439;DHT22;38359;53.150;6.504;2023-06-22T02:02:02;18.10;99.90
52439;DHT22;38359;53.150;6.504;2023-06-22T02:12:32;18.10;99.90
52439;DHT22;38359;53.150;6.504;2023-06-22T02:22:59;18.30;99.90
52439;DHT22;38359;53.150;6.504;2023-06-22T02:33:24;18.10;99.90
52439;DHT22;38359;53.150;6.504;2023-06-22T02:43:50;18.30;99.90
52439;DHT22;38359;53.150;6.504;2023-06-22T02:54:16;18.50;99.90
52439;DHT22;38359;53.150;6.504;2023-06-22T03:04:42;18.40;99.90
52439;DHT22;38359;53.150;6.504;2023-06-22T03:15:10;18.40;99.90
52439;DHT22;38359;53.150;6.504;2023-06-22T03:25:37;18.40;99.90
52439;DHT22;38359;53.150;6.504;2023-06-22T03:36:02;18.30;99.90
52439;DHT22;38359;53.150;6.504;2023-06-22T03:46:28;18.10;99.90
52439;DHT22;38359;53.150;6.504;2023-06-22T03:56:54;17.60;99.90
52439;DHT22;38359;53.150;6.504;2023-06-22T04:07:21;17.60;99.90
52439;DHT22;38359;53.150;6.504;2023-06-22T04:17:47;17.40;99.90
52439;DHT22;38359;53.150;6.504;2023-06-22T04:28:13;17.60;99.90
52439;DHT22;38359;53.150;6.504;2023-06-22T04:38:39;17.70;99.90
52439;DHT22;38359;53.150;6.504;2023-06-22T04:49:06;17.70;99.90
52439;DHT22;38359;53.150;6.504;2023-06-22T04:59:36;18.10;99.90
52439;DHT22;38359;53.150;6.504;2023-06-22T05:10:04;18.30;99.90
52439;DHT22;38359;53.150;6.504;2023-06-22T05:20:30;18.80;99.90
52439;DHT22;38359;53.150;6.504;2023-06-22T05:30:56;19.20;99.90
52439;DHT22;38359;53.150;6.504;2023-06-22T05:41:22;19.60;99.90
52439;DHT22;38359;53.150;6.504;2023-06-22T05:51:48;19.90;99.90
52439;DHT22;38359;53.150;6.504;2023-06-22T06:02:14;20.40;99.90
52439;DHT22;38359;53.150;6.504;2023-06-22T06:12:40;20.60;99.90
52439;DHT22;38359;53.150;6.504;2023-06-22T06:23:05;20.80;99.90
52439;DHT22;38359;53.150;6.504;2023-06-22T06:33:31;21.10;99.90
52439;DHT22;38359;53.150;6.504;2023-06-22T06:43:57;21.30;99.90
52439;DHT22;38359;53.150;6.504;2023-06-22T06:54:23;21.60;99.90
52439;DHT22;38359;53.150;6.504;2023-06-22T07:04:49;22.00;99.90
52439;DHT22;38359;53.150;6.504;2023-06-22T07:15:15;22.10;99.90
52439;DHT22;38359;53.150;6.504;2023-06-22T07:25:41;22.50;99.90
52439;DHT22;38359;53.150;6.504;2023-06-22T07:36:06;22.50;99.90
52439;DHT22;38359;53.150;6.504;2023-06-22T07:46:33;22.50;99.90
52439;DHT22;38359;53.150;6.504;2023-06-22T07:56:59;22.50;99.90
52439;DHT22;38359;53.150;6.504;2023-06-22T08:07:25;22.90;99.90
52439;DHT22;38359;53.150;6.504;2023-06-22T08:17:50;23.10;99.90
52439;DHT22;38359;53.150;6.504;2023-06-22T08:28:17;23.20;99.90
52439;DHT22;38359;53.150;6.504;2023-06-22T08:38:43;23.50;99.90
52439;DHT22;38359;53.150;6.504;2023-06-22T08:49:10;23.70;99.90
52439;DHT22;38359;53.150;6.504;2023-06-22T08:59:36;23.90;99.90
52439;DHT22;38359;53.150;6.504;2023-06-22T09:10:02;24.10;99.90
52439;DHT22;38359;53.150;6.504;2023-06-22T09:20:30;24.20;99.90
52439;DHT22;38359;53.150;6.504;2023-06-22T09:30:56;24.50;99.90
52439;DHT22;38359;53.150;6.504;2023-06-22T09:41:24;24.80;99.90
52439;DHT22;38359;53.150;6.504;2023-06-22T09:51:51;24.90;99.90
52439;DHT22;38359;53.150;6.504;2023-06-22T10:02:17;25.00;99.90
52439;DHT22;38359;53.150;6.504;2023-06-22T10:12:54;25.60;99.90
52439;DHT22;38359;53.150;6.504;2023-06-22T10:23:21;25.90;99.90
52439;DHT22;38359;53.150;6.504;2023-06-22T10:33:48;26.10;99.90
52439;DHT22;38359;53.150;6.504;2023-06-22T10:44:15;26.50;99.90
52439;DHT22;38359;53.150;6.504;2023-06-22T10:54:41;26.60;99.90
52439;DHT22;38359;53.150;6.504;2023-06-22T11:05:07;27.00;99.90
52439;DHT22;38359;53.150;6.504;2023-06-22T11:15:33;27.50;99.90
52439;DHT22;38359;53.150;6.504;2023-06-22T11:25:59;27.50;99.90
52439;DHT22;38359;53.150;6.504;2023-06-22T11:36:25;27.60;99.90
52439;DHT22;38359;53.150;6.504;2023-06-22T11:46:51;27.60;99.90
52439;DHT22;38359;53.150;6.504;2023-06-22T11:57:16;27.90;99.90
52439;DHT22;38359;53.150;6.504;2023-06-22T12:07:42;28.00;99.90
52439;DHT22;38359;53.150;6.504;2023-06-22T12:18:08;28.30;99.90
52439;DHT22;38359;53.150;6.504;2023-06-22T12:28:34;27.80;99.90
52439;DHT22;38359;53.150;6.504;2023-06-22T12:39:00;27.60;99.90
52439;DHT22;38359;53.150;6.504;2023-06-22T12:49:26;27.50;99.90
52439;DHT22;38359;53.150;6.504;2023-06-22T12:59:52;27.70;99.90
52439;DHT22;38359;53.150;6.504;2023-06-22T13:10:17;27.50;99.90
52439;DHT22;38359;53.150;6.504;2023-06-22T13:20:43;27.50;99.90
52439;DHT22;38359;53.150;6.504;2023-06-22T13:31:10;27.70;99.90
52439;DHT22;38359;53.150;6.504;2023-06-22T13:41:36;27.00;99.90
52439;DHT22;38359;53.150;6.504;2023-06-22T13:52:02;26.70;99.90
52439;DHT22;38359;53.150;6.504;2023-06-22T14:02:29;26.80;99.90
52439;DHT22;38359;53.150;6.504;2023-06-22T14:12:55;26.60;99.90
52439;DHT22;38359;53.150;6.504;2023-06-22T14:23:21;25.90;99.90
52439;DHT22;38359;53.150;6.504;2023-06-22T14:33:47;25.60;99.90
52439;DHT22;38359;53.150;6.504;2023-06-22T14:44:15;25.40;99.90
52439;DHT22;38359;53.150;6.504;2023-06-22T14:54:40;25.30;99.90
52439;DHT22;38359;53.150;6.504;2023-06-22T15:05:07;25.10;99.90
52439;DHT22;38359;53.150;6.504;2023-06-22T15:15:33;24.80;99.90
52439;DHT22;38359;53.150;6.504;2023-06-22T15:26:03;24.50;99.90
52439;DHT22;38359;53.150;6.504;2023-06-22T15:36:32;24.40;99.90
52439;DHT22;38359;53.150;6.504;2023-06-22T15:46:59;24.30;99.90
52439;DHT22;38359;53.150;6.504;2023-06-22T15:57:26;24.30;99.90
52439;DHT22;38359;53.150;6.504;2023-06-22T16:07:55;23.90;99.90
52439;DHT22;38359;53.150;6.504;2023-06-22T16:18:22;23.60;99.90
52439;DHT22;38359;53.150;6.504;2023-06-22T16:28:47;23.60;99.90
52439;DHT22;38359;53.150;6.504;2023-06-22T16:39:14;23.10;99.90
52439;DHT22;38359;53.150;6.504;2023-06-22T16:49:39;22.80;99.90
52439;DHT22;38359;53.150;6.504;2023-06-22T17:00:06;22.70;99.90
52439;DHT22;38359;53.150;6.504;2023-06-22T17:10:35;22.60;99.90
52439;DHT22;38359;53.150;6.504;2023-06-22T17:21:00;22.30;99.90
52439;DHT22;38359;53.150;6.504;2023-06-22T17:31:40;22.00;99.90
52439;DHT22;38359;53.150;6.504;2023-06-22T17:42:10;22.30;99.90
52439;DHT22;38359;53.150;6.504;2023-06-22T17:52:35;22.00;99.90
52439;DHT22;38359;53.150;6.504;2023-06-22T18:03:01;21.70;99.90
52439;DHT22;38359;53.150;6.504;2023-06-22T18:13:28;21.40;99.90
52439;DHT22;38359;53.150;6.504;2023-06-22T18:23:54;21.40;99.90
52439;DHT22;38359;53.150;6.504;2023-06-22T18:34:20;21.40;99.90
52439;DHT22;38359;53.150;6.504;2023-06-22T18:44:54;21.20;99.90
52439;DHT22;38359;53.150;6.504;2023-06-22T18:55:20;21.20;99.90
52439;DHT22;38359;53.150;6.504;2023-06-22T19:05:46;20.90;99.90
52439;DHT22;38359;53.150;6.504;2023-06-22T19:16:12;20.70;99.90
52439;DHT22;38359;53.150;6.504;2023-06-22T19:26:50;20.60;99.90
52439;DHT22;38359;53.150;6.504;2023-06-22T19:37:16;20.50;99.90
52439;DHT22;38359;53.150;6.504;2023-06-22T19:47:42;20.50;99.90
52439;DHT22;38359;53.150;6.504;2023-06-22T19:58:20;20.40;99.90
52439;DHT22;38359;53.150;6.504;2023-06-22T20:08:48;20.30;99.90
52439;DHT22;38359;53.150;6.504;2023-06-22T20:19:15;20.30;99.90
52439;DHT22;38359;53.150;6.504;2023-06-22T20:29:41;20.20;99.90
52439;DHT22;38359;53.150;6.504;2023-06-22T20:40:11;20.10;99.90
52439;DHT22;38359;53.150;6.504;2023-06-22T20:50:40;20.00;99.90
52439;DHT22;38359;53.150;6.504;2023-06-22T21:01:06;19.90;99.90
52439;DHT22;38359;53.150;6.504;2023-06-22T21:11:33;19.90;99.90
52439;DHT22;38359;53.150;6.504;2023-06-22T21:21:59;19.90;99.90
52439;DHT22;38359;53.150;6.504;2023-06-22T21:32:25;19.80;99.90
52439;DHT22;38359;53.150;6.504;2023-06-22T21:42:51;19.70;99.90
52439;DHT22;38359;53.150;6.504;2023-06-22T21:53:17;19.70;99.90
52439;DHT22;38359;53.150;6.504;2023-06-22T22:03:43;19.80;99.90
52439;DHT22;38359;53.150;6.504;2023-06-22T22:14:09;19.50;99.90
52439;DHT22;38359;53.150;6.504;2023-06-22T22:24:34;19.50;99.90
52439;DHT22;38359;53.150;6.504;2023-06-22T22:35:00;19.30;99.90
52439;DHT22;38359;53.150;6.504;2023-06-22T22:45:26;19.40;99.90
52439;DHT22;38359;53.150;6.504;2023-06-22T22:55:52;19.30;99.90
52439;DHT22;38359;53.150;6.504;2023-06-22T23:06:18;19.40;99.90
52439;DHT22;38359;53.150;6.504;2023-06-22T23:16:43;19.40;99.90
52439;DHT22;38359;53.150;6.504;2023-06-22T23:27:09;19.30;99.90
52439;DHT22;38359;53.150;6.504;2023-06-22T23:37:38;19.30;99.90
52439;DHT22;38359;53.150;6.504;2023-06-22T23:48:07;19.20;99.90
52439;DHT22;38359;53.150;6.504;2023-06-22T23:58:33;19.30;99.90
